Overview Statistics Trail Chart Weather Telemetry Raw packets
 

This is the latest recevied telemetry packets stored in our database for station/object DM9PT-21. If no packets are shown the sender has not sent any telemetry packets the latest 10 day(s).

Telemetry packets is used to share measurements like repeteater parameters, battery voltage, radiation readings (or any other measurements).

<< 1 2 3 4 >>
Time Press* Temp.in* Hum* QNH* Temp.out*
1788702326 1010.9 hPa 35.4 C deg 33.4 % 1027.7 hPa 0 C deg
1788700496 1011 hPa 35.4 C deg 33.5 % 1027.9 hPa 0 C deg
1788698666 1011.2 hPa 34.4 C deg 34 % 1028.2 hPa 0 C deg
1788696836 1011.3 hPa 32.9 C deg 34.7 % 1028.3 hPa 0 C deg
1788695006 1011.3 hPa 31.3 C deg 35.3 % 1028.4 hPa 0 C deg
1788693176 1011.4 hPa 29.5 C deg 36 % 1028.6 hPa 0 C deg
1788691346 1011.5 hPa 27.4 C deg 36.8 % 1028.8 hPa 0 C deg
1788689516 1011.6 hPa 25.4 C deg 37.6 % 1029.1 hPa 0 C deg
1788687686 1011.5 hPa 22.7 C deg 38.6 % 1029.1 hPa 0 C deg
1788685856 1011.5 hPa 20.8 C deg 39.3 % 1029.3 hPa 0 C deg
1788684026 1011.5 hPa 19.8 C deg 39.6 % 1029.3 hPa 0 C deg
1788682196 1011.5 hPa 19 C deg 39.8 % 1029.3 hPa 0 C deg
1788680365 1011.2 hPa 18.5 C deg 39.8 % 1029.1 hPa 0 C deg
1788678535 1011 hPa 18.3 C deg 39.8 % 1028.8 hPa 0 C deg
1788676705 1010.8 hPa 18.2 C deg 39.7 % 1028.6 hPa 0 C deg
1788674875 1010.4 hPa 18.2 C deg 39.6 % 1028.3 hPa 0 C deg
1788673045 1010.1 hPa 17.9 C deg 39.8 % 1028 hPa 0 C deg
1788671215 1009.8 hPa 18 C deg 39.7 % 1027.7 hPa 0 C deg
1788669385 1009.5 hPa 18.2 C deg 39.5 % 1027.4 hPa 0 C deg
1788667555 1009.3 hPa 18.4 C deg 39.5 % 1027.1 hPa 0 C deg
1788665725 1009 hPa 18.6 C deg 39.4 % 1026.8 hPa 0 C deg
1788663895 1008.8 hPa 18.9 C deg 39.2 % 1026.6 hPa 0 C deg
1788662065 1008.8 hPa 19.2 C deg 39.1 % 1026.6 hPa 0 C deg
1788660235 1008.5 hPa 19.4 C deg 39 % 1026.2 hPa 0 C deg
1788658405 1008.4 hPa 19.7 C deg 38.8 % 1026.1 hPa 0 C deg
*Used Equation Coefficients:
Press: 0, 1, 0
Temp.in: 0, 1, 0
Hum: 0, 1, 0
QNH: 0, 1, 0
Temp.out: 0, 1, 0

  • The parameter names for the analog channels will be Value1, Value2, Value3 (up to Value5) if station has not sent a PARAM-packet that specifies the parameter names for each analog channel.
  • Each analog value is a decimal number between 000 and 255 (according to APRS specifications). The receiver use the telemetry equation coefficientsto to restore the original sensor values. If no EQNS-packet with equation coefficients is sent we will show the values as is (this corresponds to the equation coefficients a=0, b=1 and c=0).
    The sent equation coefficients is used in the equation: a * value2 + b * value + c.
  • The units for the analog values will not be shown if station has not sent a UNIT-packet specifying what unit's to use.
  • The parameter names for the digital bits will be Bit1, Bit2, Bit3 (up to Bit8) if station has not sent a PARAM-packet that specifies the parameter names for each digital bit.
  • All bit labels will be named "On" if station has not sent a UNIT-packet that specifies the label of each bit.
  • A bit is considered to be On when the bit is 1 if station has not sent a BITS-packet that specifies another "Bit sense" (a BITS-packet specify the state of the bits that match the BIT labels)